Terminal Aerodrome Forecast
Issued by NWS Jackson, KY

Home | Current Version | Previous Version | Text Only | Print | Product List | Glossary On
Versions: 1 2 3 4 5 6 7 8 9 10 11 12 13 14 15 16 17 18 19 20 21 22 23 24 25
000
FTUS43 KJKL 291127
TAFJKL
TAF
KJKL 291127Z 2912/3012 VRB03KT P6SM SCT060 BKN090
     FM291400 18005KT P6SM VCSH BKN060
     FM291800 22008G18KT P6SM VCTS SCT045CB BKN070
     FM300400 VRB03KT P6SM SCT050=

USA.gov is the U.S. government's official web portal to all federal, state and local government web resources and services.